Time;durP1;ratioP1;P1;durP2;ratioP2;P2;SDS_P1;SDS_P2;PMS_P1;PMS_P2;Temp;Humidity;BMP_temperature;BMP_pressure;BME280_temperature;BME280_humidity;BME280_pressure;Samples;Min_cycle;Max_cycle;Signal;HPM_P1;HPM_P2
2022/08/10 00:01:25;;;;;;;3.00;2.30;;;14.90;96.00;;;;;;5056799;28;20029;-69
2022/08/10 00:03:50;;;;;;;3.42;1.95;;;14.90;96.10;;;;;;5056770;28;20097;-69
2022/08/10 00:06:16;;;;;;;2.30;1.80;;;14.90;96.00;;;;;;5056537;28;20036;-69
2022/08/10 00:08:42;;;;;;;2.70;1.70;;;14.80;96.20;;;;;;5056466;28;20025;-69
2022/08/10 00:11:09;;;;;;;3.88;1.90;;;14.80;96.20;;;;;;5074636;28;20029;-69
2022/08/10 00:13:34;;;;;;;2.65;1.70;;;14.70;96.40;;;;;;5056372;28;20077;-69
2022/08/10 00:16:01;;;;;;;3.47;1.85;;;14.70;96.70;;;;;;5074157;28;20032;-69
2022/08/10 00:18:26;;;;;;;3.08;1.75;;;14.70;97.00;;;;;;5056210;28;20461;-69
2022/08/10 00:20:53;;;;;;;2.85;1.77;;;14.60;97.00;;;;;;5056482;28;20066;-69
2022/08/10 00:23:19;;;;;;;2.67;1.77;;;14.60;97.20;;;;;;5074086;28;20411;-69
2022/08/10 00:25:44;;;;;;;3.35;1.70;;;14.50;97.60;;;;;;5056113;28;20035;-69
2022/08/10 00:28:10;;;;;;;3.60;1.80;;;14.40;97.70;;;;;;5056084;28;20449;-69
2022/08/10 00:30:36;;;;;;;3.33;1.73;;;14.30;97.90;;;;;;5056347;28;20465;-69
2022/08/10 00:33:01;;;;;;;4.18;1.60;;;14.30;98.10;;;;;;5073929;28;20092;-69
2022/08/10 00:35:27;;;;;;;3.75;2.10;;;14.40;98.20;;;;;;5074369;28;20055;-69
2022/08/10 00:37:53;;;;;;;2.17;1.80;;;14.30;98.20;;;;;;5074354;28;20025;-69
2022/08/10 00:40:19;;;;;;;4.30;1.70;;;14.30;98.40;;;;;;5056180;28;20031;-69
2022/08/10 00:42:44;;;;;;;4.13;2.10;;;14.30;98.50;;;;;;5072913;28;20457;-69
2022/08/10 00:45:10;;;;;;;3.05;1.90;;;14.30;98.80;;;;;;5056058;28;20043;-69
2022/08/10 00:47:36;;;;;;;3.47;2.05;;;14.20;99.10;;;;;;5073759;28;20125;-70
2022/08/10 00:50:04;;;;;;;3.00;1.98;;;14.00;99.50;;;;;;5055672;28;20021;-69
2022/08/10 00:52:31;;;;;;;3.00;1.70;;;13.90;99.70;;;;;;5073637;28;20028;-69
2022/08/10 00:54:58;;;;;;;2.65;1.80;;;14.00;99.80;;;;;;5073583;28;20546;-69
2022/08/10 00:57:24;;;;;;;3.55;1.90;;;14.00;99.80;;;;;;5055774;28;20094;-69
2022/08/10 00:59:52;;;;;;;3.17;1.80;;;13.90;99.90;;;;;;5073810;28;20032;-69
2022/08/10 01:02:17;;;;;;;3.95;2.05;;;13.90;99.80;;;;;;5073663;28;20063;-69
2022/08/10 01:04:43;;;;;;;3.88;1.80;;;13.90;99.80;;;;;;5071636;28;20044;-69
2022/08/10 01:07:52;;;;;;;3.00;1.92;;;13.90;99.80;;;;;;5093448;28;20456;-69
2022/08/10 01:10:45;;;;;;;2.75;1.77;;;13.90;99.90;;;;;;5092920;28;20448;-70
2022/08/10 01:13:19;;;;;;;3.67;2.00;;;13.90;99.90;;;;;;5093090;28;20024;-70
2022/08/10 01:16:04;;;;;;;2.75;2.10;;;13.90;99.90;;;;;;5093395;28;20020;-70
2022/08/10 01:18:52;;;;;;;2.78;2.00;;;13.90;99.90;;;;;;5075178;28;20056;-70
2022/08/10 01:21:24;;;;;;;2.55;1.80;;;13.90;99.90;;;;;;5093277;28;20388;-70
2022/08/10 01:24:15;;;;;;;2.60;1.70;;;13.80;99.90;;;;;;5075195;28;20104;-70
2022/08/10 01:27:05;;;;;;;2.60;1.58;;;13.80;99.90;;;;;;5092937;28;20427;-70
2022/08/10 01:30:07;;;;;;;3.85;1.90;;;13.80;99.90;;;;;;5075106;28;20028;-70
2022/08/10 01:32:44;;;;;;;4.07;1.77;;;13.70;99.90;;;;;;5066270;28;20119;-70
2022/08/10 01:35:19;;;;;;;4.05;1.90;;;13.70;99.90;;;;;;5092871;28;20369;-71
2022/08/10 01:37:55;;;;;;;3.95;2.00;;;13.60;99.90;;;;;;5073118;28;20116;-72
2022/08/10 01:40:25;;;;;;;3.38;2.00;;;13.60;99.90;;;;;;5073086;28;20477;-71
2022/08/10 01:42:54;;;;;;;3.30;2.00;;;13.60;99.90;;;;;;5073108;28;20032;-71
2022/08/10 01:45:22;;;;;;;2.58;1.95;;;13.60;99.90;;;;;;5091224;28;20020;-70
2022/08/10 01:50:47;;;;;;;2.83;1.83;;;13.60;99.90;;;;;;5093583;28;20027;-70
2022/08/10 01:53:20;;;;;;;2.38;1.92;;;13.50;99.90;;;;;;5094011;28;20035;-70
2022/08/10 01:55:48;;;;;;;2.45;1.92;;;13.50;99.90;;;;;;5097761;28;20024;-70
2022/08/10 01:58:16;;;;;;;4.65;2.58;;;13.50;99.90;;;;;;5097203;28;20047;-70
2022/08/10 02:00:44;;;;;;;4.93;2.90;;;13.40;99.90;;;;;;5078954;28;20540;-70
2022/08/10 02:03:12;;;;;;;4.53;3.05;;;13.40;99.90;;;;;;5078858;28;20032;-70
2022/08/10 02:05:42;;;;;;;5.65;2.63;;;13.30;99.90;;;;;;5078943;28;20040;-70
2022/08/10 02:08:11;;;;;;;6.72;3.20;;;13.20;99.90;;;;;;5078766;28;20081;-70
2022/08/10 02:10:40;;;;;;;4.22;3.05;;;13.20;99.90;;;;;;5096934;28;20035;-70
2022/08/10 02:13:08;;;;;;;4.90;3.28;;;13.10;99.90;;;;;;5096923;28;20054;-70
2022/08/10 02:15:35;;;;;;;4.45;3.00;;;13.10;99.90;;;;;;5096763;28;20032;-70
2022/08/10 02:18:05;;;;;;;3.38;2.30;;;13.10;99.90;;;;;;5078573;28;20035;-70
2022/08/10 02:20:58;;;;;;;4.15;2.28;;;13.10;99.90;;;;;;5078579;28;20027;-70
2022/08/10 02:23:27;;;;;;;3.00;2.10;;;13.10;99.90;;;;;;5076808;28;20032;-70
2022/08/10 02:25:55;;;;;;;3.00;2.42;;;13.00;99.90;;;;;;5096570;28;20484;-70
2022/08/10 02:28:24;;;;;;;3.28;2.20;;;12.90;99.90;;;;;;5078646;28;20476;-70
2022/08/10 02:30:53;;;;;;;2.80;2.20;;;12.90;99.90;;;;;;5078330;28;20020;-70
2022/08/10 02:33:22;;;;;;;4.65;2.50;;;12.80;99.90;;;;;;5079268;28;20024;-70
2022/08/10 02:35:50;;;;;;;3.25;2.65;;;12.80;99.90;;;;;;5078780;28;20404;-70
2022/08/10 02:38:20;;;;;;;3.65;2.33;;;12.90;99.90;;;;;;5096492;28;20024;-70
2022/08/10 02:40:51;;;;;;;4.40;2.33;;;12.90;99.90;;;;;;5097214;28;20384;-70
2022/08/10 02:43:37;;;;;;;2.75;2.15;;;12.90;99.90;;;;;;5096682;28;20035;-70
2022/08/10 02:46:09;;;;;;;2.90;2.20;;;12.90;99.90;;;;;;5096232;28;20038;-70
2022/08/10 02:48:40;;;;;;;3.08;2.03;;;12.90;99.90;;;;;;5078857;28;20028;-70
2022/08/10 02:51:10;;;;;;;;;;;12.80;99.90;;;;;;5078414;28;20027;-70
2022/08/10 02:54:06;;;;;;;3.05;2.13;;;12.80;99.90;;;;;;5077978;28;19904;-69
2022/08/10 02:56:40;;;;;;;2.80;2.20;;;12.70;99.90;;;;;;5074399;28;20032;-70
2022/08/10 02:59:13;;;;;;;5.50;2.28;;;12.70;99.90;;;;;;5096058;28;20034;-70
2022/08/10 03:01:43;;;;;;;3.47;2.35;;;12.60;99.90;;;;;;5096188;28;20035;-70
2022/08/10 03:04:21;;;;;;;3.58;2.30;;;12.40;99.90;;;;;;5077889;28;20020;-70
2022/08/10 03:07:10;;;;;;;4.28;2.60;;;12.30;99.90;;;;;;5077377;28;20513;-70
2022/08/10 03:09:38;;;;;;;4.03;2.45;;;12.30;99.90;;;;;;5077696;28;20031;-70
2022/08/10 03:12:07;;;;;;;3.55;2.38;;;12.30;99.90;;;;;;5077921;28;20380;-70
2022/08/10 03:14:36;;;;;;;3.55;2.50;;;12.20;99.90;;;;;;5095752;28;20027;-70
2022/08/10 03:17:03;;;;;;;3.22;2.38;;;12.20;99.90;;;;;;5077716;28;20035;-70
2022/08/10 03:19:32;;;;;;;3.10;1.90;;;12.20;99.90;;;;;;5077508;28;20028;-70
2022/08/10 03:21:58;;;;;;;2.90;2.22;;;12.20;99.90;;;;;;5095519;28;20365;-70
2022/08/10 03:24:26;;;;;;;4.28;2.65;;;12.20;99.90;;;;;;5095793;28;20035;-70
2022/08/10 03:26:53;;;;;;;4.30;2.78;;;12.10;99.90;;;;;;5095520;28;20100;-70
2022/08/10 03:29:21;;;;;;;3.60;2.50;;;12.10;99.90;;;;;;5077201;28;20031;-70
2022/08/10 03:31:49;;;;;;;4.00;2.55;;;12.00;99.90;;;;;;5095313;28;20084;-70
2022/08/10 03:34:15;;;;;;;3.92;2.88;;;12.00;99.90;;;;;;5077377;28;20051;-70
2022/08/10 03:36:42;;;;;;;6.65;3.00;;;11.90;99.90;;;;;;5095177;28;20099;-70
2022/08/10 03:39:08;;;;;;;3.22;2.38;;;12.00;99.90;;;;;;5077001;28;20028;-70
2022/08/10 03:41:42;;;;;;;3.25;2.33;;;11.90;99.90;;;;;;5076851;28;20024;-70
2022/08/10 03:44:10;;;;;;;3.10;2.30;;;11.90;99.90;;;;;;5077855;28;20024;-69
2022/08/10 03:46:39;;;;;;;3.75;2.45;;;11.90;99.90;;;;;;5095321;28;20016;-70
2022/08/10 03:49:06;;;;;;;3.55;2.50;;;11.90;99.90;;;;;;5095566;28;20020;-70
2022/08/10 03:51:33;;;;;;;4.45;2.63;;;11.90;99.90;;;;;;5076822;28;20055;-70
2022/08/10 03:54:00;;;;;;;3.95;2.78;;;11.90;99.90;;;;;;5077097;28;20024;-69
2022/08/10 03:56:27;;;;;;;5.53;3.30;;;11.90;99.90;;;;;;5095135;28;20024;-69
2022/08/10 03:58:53;;;;;;;6.22;3.38;;;11.90;99.90;;;;;;5094847;28;20032;-70
2022/08/10 04:01:19;;;;;;;5.15;2.70;;;11.90;99.90;;;;;;5076624;28;20016;-70
2022/08/10 04:03:45;;;;;;;4.53;2.75;;;11.90;99.90;;;;;;5095027;28;20078;-69
2022/08/10 04:06:11;;;;;;;5.25;2.72;;;12.00;99.90;;;;;;5076578;28;20039;-69
2022/08/10 04:08:41;;;;;;;6.82;2.70;;;11.90;99.90;;;;;;5094666;28;20028;-69
2022/08/10 04:11:09;;;;;;;4.85;2.72;;;12.00;99.90;;;;;;5076507;28;20066;-69
2022/08/10 04:13:35;;;;;;;3.78;2.55;;;11.90;99.90;;;;;;5076462;28;20028;-69
2022/08/10 04:16:01;;;;;;;5.28;2.70;;;11.90;99.90;;;;;;5094459;28;20028;-70
2022/08/10 04:18:26;;;;;;;5.63;3.50;;;11.90;99.90;;;;;;5094518;28;20520;-69
2022/08/10 04:20:57;;;;;;;7.47;4.43;;;11.90;99.90;;;;;;5076287;28;20023;-69
2022/08/10 04:23:28;;;;;;;6.60;3.40;;;11.80;99.90;;;;;;5094424;28;20028;-69
2022/08/10 04:25:54;;;;;;;6.67;3.77;;;11.80;99.90;;;;;;5094566;28;20027;-69
2022/08/10 04:28:20;;;;;;;4.85;3.00;;;11.70;99.90;;;;;;5094201;28;20028;-69
2022/08/10 04:30:48;;;;;;;5.50;3.38;;;11.70;99.90;;;;;;5112730;28;20103;-69
2022/08/10 04:33:18;;;;;;;3.33;2.58;;;11.80;99.90;;;;;;5114805;28;20549;-69
2022/08/10 04:35:46;;;;;;;3.60;2.80;;;11.70;99.90;;;;;;5114733;28;20066;-69
2022/08/10 04:38:14;;;;;;;3.92;2.90;;;11.80;99.90;;;;;;5114467;28;20020;-69
2022/08/10 04:40:41;;;;;;;3.60;2.40;;;11.80;99.90;;;;;;5114718;28;20076;-69
2022/08/10 04:43:07;;;;;;;3.70;2.60;;;11.80;99.90;;;;;;5114496;28;20024;-69
2022/08/10 04:45:33;;;;;;;4.38;3.03;;;11.80;99.90;;;;;;5096061;28;20030;-70
2022/08/10 04:47:59;;;;;;;3.25;2.33;;;11.80;99.90;;;;;;5114283;28;20027;-69
2022/08/10 04:50:25;;;;;;;5.05;2.50;;;11.90;99.90;;;;;;5095927;28;20384;-69
2022/08/10 04:52:51;;;;;;;5.75;2.70;;;11.80;99.90;;;;;;5095901;28;20119;-69
2022/08/10 04:55:17;;;;;;;4.03;2.83;;;11.90;99.90;;;;;;5095764;28;20114;-69
2022/08/10 04:57:43;;;;;;;4.43;2.80;;;11.80;99.90;;;;;;5114341;28;20435;-69
2022/08/10 05:00:09;;;;;;;6.03;2.95;;;11.90;99.90;;;;;;5114399;28;20068;-69
2022/08/10 05:02:35;;;;;;;4.15;3.03;;;11.80;99.90;;;;;;5096139;28;20024;-69
2022/08/10 05:05:00;;;;;;;4.05;2.78;;;11.80;99.90;;;;;;5114047;28;20038;-69
2022/08/10 05:07:26;;;;;;;4.18;2.72;;;11.70;99.90;;;;;;5114034;28;20235;-69
2022/08/10 05:09:55;;;;;;;4.97;2.80;;;11.70;99.90;;;;;;5095652;28;20020;-69
2022/08/10 05:12:21;;;;;;;4.55;2.85;;;11.70;99.90;;;;;;5095586;28;20024;-69
2022/08/10 05:14:47;;;;;;;3.97;2.60;;;11.70;99.90;;;;;;5095575;28;20023;-69
2022/08/10 05:17:13;;;;;;;4.32;2.67;;;11.70;99.90;;;;;;5113928;28;20107;-69
2022/08/10 05:19:38;;;;;;;3.95;2.90;;;11.70;99.90;;;;;;5113860;28;20030;-69
2022/08/10 05:22:04;;;;;;;4.30;3.03;;;11.80;99.90;;;;;;5113889;28;20396;-69
2022/08/10 05:24:30;;;;;;;4.03;3.10;;;11.70;99.90;;;;;;5095555;28;20446;-69
2022/08/10 05:26:56;;;;;;;5.22;3.03;;;11.80;99.90;;;;;;5113699;28;20059;-69
2022/08/10 05:29:22;;;;;;;5.00;3.10;;;11.80;99.90;;;;;;5118837;28;20476;-69
2022/08/10 05:31:48;;;;;;;3.55;3.05;;;11.90;99.90;;;;;;5120663;28;20031;-69
2022/08/10 05:34:15;;;;;;;3.38;2.95;;;11.90;99.90;;;;;;5120611;28;20480;-69
2022/08/10 05:36:41;;;;;;;4.25;3.40;;;11.90;99.90;;;;;;5102177;28;20047;-69
2022/08/10 05:39:08;;;;;;;4.00;3.30;;;12.00;99.90;;;;;;5102189;28;20027;-69
2022/08/10 05:41:34;;;;;;;6.20;3.60;;;12.00;99.90;;;;;;5120618;28;20020;-69
2022/08/10 05:44:01;;;;;;;6.85;3.97;;;12.00;99.90;;;;;;5120999;28;20447;-69
2022/08/10 05:46:27;;;;;;;4.78;3.75;;;12.10;99.90;;;;;;5102150;28;20020;-69
2022/08/10 05:48:53;;;;;;;6.65;4.43;;;12.10;99.90;;;;;;5102159;28;20046;-69
2022/08/10 05:51:19;;;;;;;5.80;3.85;;;12.20;99.90;;;;;;5101985;28;20056;-69
2022/08/10 05:53:45;;;;;;;6.55;3.75;;;12.20;99.90;;;;;;5120293;28;20480;-70
2022/08/10 05:56:11;;;;;;;9.20;4.72;;;12.30;99.90;;;;;;5120848;28;20031;-70
2022/08/10 05:58:38;;;;;;;10.32;5.10;;;12.30;99.90;;;;;;5102009;28;20028;-69
2022/08/10 06:01:12;;;;;;;7.32;4.95;;;12.40;99.90;;;;;;5120592;28;20062;-69
2022/08/10 06:03:46;;;;;;;6.55;4.53;;;12.40;99.90;;;;;;5102031;28;20063;-69
2022/08/10 06:06:13;;;;;;;5.22;4.30;;;12.40;99.90;;;;;;5120099;28;20032;-69
2022/08/10 06:08:42;;;;;;;8.48;5.13;;;12.50;99.90;;;;;;5101971;28;20077;-69
2022/08/10 06:11:10;;;;;;;5.60;4.72;;;12.50;99.90;;;;;;5120465;28;20024;-69
2022/08/10 06:16:25;;;;;;;6.72;5.70;;;12.60;99.90;;;;;;5120421;28;20025;-69
2022/08/10 06:18:52;;;;;;;6.35;5.10;;;12.60;99.90;;;;;;5120129;28;20020;-69
2022/08/10 06:21:18;;;;;;;6.03;4.93;;;12.70;99.90;;;;;;5120417;28;20375;-69
2022/08/10 06:23:45;;;;;;;8.52;5.47;;;12.80;99.90;;;;;;5101797;28;20498;-69
2022/08/10 06:26:10;;;;;;;6.38;5.03;;;12.80;99.90;;;;;;5119991;28;20032;-69
2022/08/10 06:28:44;;;;;;;7.43;4.65;;;12.90;99.90;;;;;;5120356;28;20030;-69
2022/08/10 06:31:12;;;;;;;6.93;5.13;;;13.00;99.90;;;;;;5102701;28;20023;-69
2022/08/10 06:33:39;;;;;;;8.07;4.50;;;13.10;99.90;;;;;;5120434;28;20028;-69
2022/08/10 06:36:07;;;;;;;7.13;4.78;;;13.20;99.90;;;;;;5120199;28;20353;-69
2022/08/10 06:38:35;;;;;;;6.95;4.60;;;13.30;99.90;;;;;;5119932;28;20463;-69
2022/08/10 06:41:07;;;;;;;6.03;5.15;;;13.40;99.90;;;;;;5116278;28;20039;-69
2022/08/10 06:43:34;;;;;;;6.68;5.03;;;13.50;99.90;;;;;;5117033;28;20027;-69
2022/08/10 06:46:02;;;;;;;8.15;5.90;;;13.60;99.90;;;;;;5098326;28;20050;-69
2022/08/10 06:48:33;;;;;;;8.80;6.10;;;13.80;99.90;;;;;;5116622;28;20024;-69
2022/08/10 06:51:16;;;;;;;9.77;6.30;;;13.90;99.90;;;;;;5098278;28;20385;-69
2022/08/10 06:53:47;;;;;;;10.02;7.25;;;14.00;99.90;;;;;;5098271;28;20039;-69
2022/08/10 06:56:17;;;;;;;11.00;7.32;;;14.10;99.90;;;;;;5098424;28;20484;-69
2022/08/10 06:59:02;;;;;;;9.30;7.00;;;14.30;99.90;;;;;;5098356;28;20108;-69
2022/08/10 07:01:32;;;;;;;9.95;6.95;;;14.40;99.90;;;;;;5104434;28;20039;-69
2022/08/10 07:04:05;;;;;;;9.15;7.00;;;14.50;99.90;;;;;;5077636;28;20024;-69
2022/08/10 07:06:33;;;;;;;7.45;6.22;;;14.60;99.90;;;;;;5077337;28;20028;-69
2022/08/10 07:09:00;;;;;;;7.65;5.05;;;14.80;99.90;;;;;;5076878;28;20427;-69
2022/08/10 07:11:28;;;;;;;7.57;3.80;;;15.00;99.90;;;;;;5095560;28;20016;-69
2022/08/10 07:13:55;;;;;;;6.70;3.60;;;15.10;99.90;;;;;;5095514;28;20052;-69
2022/08/10 07:16:27;;;;;;;5.20;3.42;;;15.30;99.90;;;;;;5095453;28;20467;-69
2022/08/10 07:18:55;;;;;;;3.63;2.53;;;15.40;99.90;;;;;;5077341;28;20058;-69
2022/08/10 07:21:25;;;;;;;4.00;3.42;;;15.60;99.90;;;;;;5095401;28;20073;-69
2022/08/10 07:23:53;;;;;;;7.28;3.20;;;15.70;99.90;;;;;;5094092;28;20473;-69
2022/08/10 07:26:20;;;;;;;4.00;2.70;;;15.90;99.90;;;;;;5077106;28;20074;-69
2022/08/10 07:28:48;;;;;;;4.85;2.85;;;16.00;99.90;;;;;;5077663;28;20024;-69
2022/08/10 07:31:19;;;;;;;4.68;2.60;;;16.10;99.90;;;;;;5077434;28;20430;-68
2022/08/10 07:33:48;;;;;;;8.35;2.80;;;16.40;99.90;;;;;;5095250;28;20020;-69
2022/08/10 07:36:14;;;;;;;4.32;2.63;;;16.50;99.90;;;;;;5095121;28;20028;-69
2022/08/10 07:38:42;;;;;;;4.70;2.42;;;16.60;99.90;;;;;;5077015;28;20101;-70
2022/08/10 07:41:08;;;;;;;7.75;2.60;;;16.80;99.90;;;;;;5077009;28;20496;-69
2022/08/10 07:43:39;;;;;;;6.05;2.42;;;17.00;99.90;;;;;;5076841;28;20384;-71
2022/08/10 07:46:11;;;;;;;4.53;2.60;;;17.10;99.90;;;;;;5094786;28;20503;-69
2022/08/10 07:48:44;;;;;;;3.70;2.50;;;17.40;99.90;;;;;;5076869;28;20055;-69
2022/08/10 07:51:11;;;;;;;5.10;2.30;;;17.50;99.90;;;;;;5076386;28;20024;-69
2022/08/10 07:53:43;;;;;;;4.20;2.50;;;17.70;99.90;;;;;;5076278;28;20055;-69
2022/08/10 07:56:09;;;;;;;3.25;2.28;;;17.80;99.90;;;;;;5095256;28;20064;-69
2022/08/10 07:58:48;;;;;;;6.13;2.30;;;18.00;99.90;;;;;;5076830;28;20047;-69
2022/08/10 08:01:16;;;;;;;4.47;2.30;;;18.10;99.90;;;;;;5076429;28;20028;-69
2022/08/10 08:03:43;;;;;;;4.47;2.38;;;18.30;99.90;;;;;;5076771;28;20427;-68
2022/08/10 08:06:10;;;;;;;3.83;2.22;;;18.50;99.80;;;;;;5076474;28;20043;-69
2022/08/10 08:08:39;;;;;;;3.55;2.13;;;18.60;99.20;;;;;;5094309;28;20067;-70
2022/08/10 08:11:06;;;;;;;3.53;2.00;;;18.80;98.90;;;;;;5094568;28;20077;-69
2022/08/10 08:13:34;;;;;;;5.38;2.25;;;19.00;98.30;;;;;;5076150;28;20028;-69
2022/08/10 08:16:03;;;;;;;4.63;2.30;;;19.20;97.00;;;;;;5076177;28;20020;-69
2022/08/10 08:18:31;;;;;;;4.55;2.00;;;19.40;96.60;;;;;;5094564;28;20024;-69
2022/08/10 08:20:57;;;;;;;4.60;2.47;;;19.60;96.70;;;;;;5076084;28;20107;-69
2022/08/10 08:23:26;;;;;;;4.40;2.25;;;19.80;96.70;;;;;;5075689;28;20020;-69
2022/08/10 08:25:53;;;;;;;3.38;1.90;;;20.00;96.00;;;;;;5094114;28;20028;-69
2022/08/10 08:28:19;;;;;;;4.97;2.30;;;20.20;95.40;;;;;;5076246;28;20039;-69
2022/08/10 08:30:46;;;;;;;5.40;2.40;;;20.30;94.90;;;;;;5094272;28;20415;-69
2022/08/10 08:33:14;;;;;;;3.58;2.10;;;20.50;94.50;;;;;;5075866;28;20024;-68
2022/08/10 08:35:41;;;;;;;3.50;1.98;;;20.60;95.20;;;;;;5093935;28;20099;-69
2022/08/10 08:38:08;;;;;;;5.72;2.03;;;20.70;94.10;;;;;;5093700;28;20036;-69
2022/08/10 08:40:36;;;;;;;4.28;2.15;;;20.90;94.10;;;;;;5093996;28;20122;-69
2022/08/10 08:43:33;;;;;;;3.30;1.83;;;21.00;93.20;;;;;;5075731;28;20062;-69
2022/08/10 08:46:18;;;;;;;3.30;1.60;;;21.10;92.10;;;;;;5075600;28;20035;-69
2022/08/10 08:49:07;;;;;;;3.28;1.88;;;21.20;91.60;;;;;;5075681;28;20450;-70
2022/08/10 08:51:44;;;;;;;5.40;1.73;;;21.30;91.80;;;;;;5075462;28;20019;-70
2022/08/10 08:54:18;;;;;;;3.92;1.70;;;21.50;90.50;;;;;;5093705;28;20423;-69
2022/08/10 08:57:11;;;;;;;5.47;2.08;;;21.60;90.00;;;;;;5093636;28;20042;-69
2022/08/10 08:59:49;;;;;;;2.67;1.77;;;21.80;88.10;;;;;;5075732;28;20126;-69
2022/08/10 09:02:55;;;;;;;2.55;1.50;;;21.80;87.10;;;;;;5075661;28;20039;-70
2022/08/10 09:05:29;;;;;;;3.38;1.88;;;21.90;86.50;;;;;;5075168;28;20055;-70
2022/08/10 09:08:16;;;;;;;3.22;1.42;;;22.00;86.20;;;;;;5075331;28;20028;-70
2022/08/10 09:10:59;;;;;;;2.97;2.10;;;22.20;87.40;;;;;;5093548;28;20111;-69
2022/08/10 09:13:53;;;;;;;4.10;1.80;;;22.20;88.50;;;;;;5093369;28;20024;-69
2022/08/10 09:16:50;;;;;;;3.67;1.70;;;22.40;84.80;;;;;;5075468;28;20028;-69
2022/08/10 09:19:57;;;;;;;2.72;1.80;;;22.50;85.30;;;;;;5075258;28;20480;-69
2022/08/10 09:22:51;;;;;;;4.07;1.60;;;22.60;84.90;;;;;;5031182;28;20136;-70
2022/08/10 09:25:21;;;;;;;3.00;1.60;;;22.80;85.10;;;;;;5030400;28;20053;-68
2022/08/10 09:28:09;;;;;;;3.63;1.92;;;22.90;84.10;;;;;;5074083;28;20527;-69
2022/08/10 09:31:02;;;;;;;3.38;1.50;;;23.00;82.50;;;;;;5074550;28;20043;-69
2022/08/10 09:34:06;;;;;;;3.67;1.55;;;23.10;81.20;;;;;;5074493;28;20032;-70
2022/08/10 09:36:36;;;;;;;3.22;1.60;;;23.20;80.30;;;;;;5075002;28;20028;-70
2022/08/10 09:39:15;;;;;;;2.65;1.80;;;23.30;81.10;;;;;;5074873;28;20075;-69
2022/08/10 09:42:08;;;;;;;2.72;1.80;;;23.40;80.70;;;;;;5093173;28;20427;-69
2022/08/10 09:45:22;;;;;;;2.60;1.65;;;23.40;80.00;;;;;;5074451;28;20034;-68
2022/08/10 09:48:05;;;;;;;3.60;1.65;;;23.60;80.70;;;;;;4994687;28;20081;-70
2022/08/10 09:50:52;;;;;;;5.65;1.77;;;23.70;80.20;;;;;;5085460;28;20032;-68
2022/08/10 09:53:48;;;;;;;5.78;1.63;;;23.80;79.40;;;;;;5074443;28;20024;-69
2022/08/10 09:56:28;;;;;;;3.70;1.80;;;23.90;79.40;;;;;;5092991;28;20043;-69
2022/08/10 09:59:38;;;;;;;4.67;1.70;;;24.00;78.50;;;;;;5075211;28;20027;-69
2022/08/10 10:02:26;;;;;;;3.55;1.65;;;24.10;78.70;;;;;;5056118;28;20269;-69
2022/08/10 10:04:51;;;;;;;4.05;2.47;;;24.10;76.50;;;;;;5092874;28;20499;-69
2022/08/10 10:07:27;;;;;;;2.65;1.83;;;24.10;76.80;;;;;;5092837;28;20036;-69
2022/08/10 10:10:10;;;;;;;5.22;1.80;;;24.20;75.90;;;;;;5092605;28;20031;-69
2022/08/10 10:13:01;;;;;;;2.95;1.50;;;24.40;76.40;;;;;;5074667;28;20020;-69
2022/08/10 10:15:32;;;;;;;4.00;1.90;;;24.50;76.60;;;;;;5077530;28;20032;-69
2022/08/10 10:18:28;;;;;;;3.78;1.83;;;24.60;77.20;;;;;;5096728;28;20020;-69
2022/08/10 10:21:02;;;;;;;3.10;1.70;;;24.70;75.00;;;;;;5095985;28;20078;-69
2022/08/10 10:23:41;;;;;;;4.35;1.67;;;24.70;76.30;;;;;;5096845;28;20024;-69
2022/08/10 10:26:31;;;;;;;4.15;1.73;;;24.70;76.20;;;;;;5096635;28;20055;-69
2022/08/10 10:29:34;;;;;;;2.65;1.60;;;24.90;75.70;;;;;;5078491;28;20035;-69
2022/08/10 10:32:09;;;;;;;3.85;1.50;;;25.00;75.90;;;;;;5078538;28;20119;-69
2022/08/10 10:34:35;;;;;;;;;;;25.10;73.30;;;;;;5097212;28;20032;-69
2022/08/10 10:37:01;;;;;;;;;;;25.20;74.00;;;;;;5078668;28;19904;-71
2022/08/10 10:39:27;;;;;;;;;;;25.20;70.90;;;;;;5078673;28;20375;-69
2022/08/10 10:41:56;;;;;;;;;;;25.20;71.80;;;;;;5097154;28;20261;-69
2022/08/10 10:44:37;;;;;;;;;;;25.20;71.60;;;;;;5097031;28;20342;-69
2022/08/10 10:47:10;;;;;;;;;;;25.20;69.70;;;;;;5078452;28;19904;-69
2022/08/10 10:49:39;;;;;;;;;;;25.20;72.50;;;;;;5096967;28;20357;-69
2022/08/10 10:52:08;;;;;;;;;;;25.30;72.20;;;;;;5096762;28;19908;-69
2022/08/10 10:54:58;;;;;;;;;;;25.40;71.80;;;;;;5096548;28;19912;-68
2022/08/10 10:57:36;;;;;;;;;;;25.40;72.30;;;;;;5078271;28;19904;-68
2022/08/10 11:00:08;;;;;;;;;;;25.50;70.70;;;;;;5078605;28;20331;-68
2022/08/10 11:02:37;;;;;;;;;;;25.60;70.20;;;;;;5078293;28;19904;-68
2022/08/10 11:05:21;;;;;;;;;;;25.60;68.90;;;;;;5096362;28;20379;-69
2022/08/10 11:08:06;;;;;;;;;;;25.70;70.90;;;;;;5078120;28;19919;-68
2022/08/10 11:10:33;;;;;;;;;;;25.70;68.30;;;;;;5078129;28;19952;-68
2022/08/10 11:13:06;;;;;;;;;;;25.60;69.00;;;;;;5096152;28;19908;-68
2022/08/10 11:15:35;;;;;;;;;;;25.70;70.80;;;;;;5078272;28;20299;-68
2022/08/10 11:18:01;;;;;;;;;;;25.70;70.10;;;;;;5096662;28;20358;-68
2022/08/10 11:20:55;;;;;;;;;;;25.80;69.20;;;;;;5096060;28;19904;-69
2022/08/10 11:23:26;;;;;;;;;;;25.90;67.50;;;;;;5041393;28;20367;-68
2022/08/10 11:25:56;;;;;;;;;;;25.90;66.20;;;;;;5077019;28;19961;-68
2022/08/10 11:28:33;;;;;;;;;;;25.90;68.40;;;;;;5077765;28;19904;-68
2022/08/10 11:31:05;;;;;;;;;;;26.10;67.10;;;;;;5096064;28;19904;-68
2022/08/10 11:33:42;;;;;;;;;;;26.10;68.60;;;;;;5096338;28;19947;-68
2022/08/10 11:36:14;;;;;;;;;;;26.20;66.50;;;;;;5095729;28;19950;-68
2022/08/10 11:38:58;;;;;;;;;;;26.30;66.60;;;;;;5095956;28;20318;-68
2022/08/10 11:41:30;;;;;;;;;;;26.30;64.40;;;;;;5071661;28;19954;-69
2022/08/10 11:44:07;;;;;;;;;;;26.30;65.50;;;;;;5090745;28;19915;-68
2022/08/10 11:46:35;;;;;;;;;;;26.30;64.60;;;;;;5061135;28;19926;-69
2022/08/10 11:49:12;;;;;;;;;;;26.20;64.00;;;;;;5078129;28;20001;-67
2022/08/10 11:51:42;;;;;;;;;;;26.20;64.20;;;;;;5077301;28;20003;-68
2022/08/10 11:54:10;;;;;;;;;;;26.20;66.00;;;;;;5095447;28;19999;-68
2022/08/10 11:56:51;;;;;;;;;;;26.20;66.40;;;;;;5083643;28;19941;-68
2022/08/10 12:02:04;;;;;;;;;;;26.40;65.30;;;;;;5095688;28;19915;-68
2022/08/10 12:04:30;;;;;;;;;;;26.40;65.10;;;;;;5077424;28;20360;-68
2022/08/10 12:06:56;;;;;;;;;;;26.50;63.30;;;;;;5095035;28;19912;-69
2022/08/10 12:09:23;;;;;;;;;;;26.50;63.80;;;;;;5095867;28;19971;-67
2022/08/10 12:11:49;;;;;;;;;;;26.70;63.10;;;;;;5094995;28;20284;-69
2022/08/10 12:14:24;;;;;;;;;;;26.80;65.00;;;;;;5094995;28;19904;-69
2022/08/10 12:16:53;;;;;;;;;;;26.90;63.00;;;;;;5094996;28;19907;-69
2022/08/10 12:19:26;;;;;;;;;;;26.80;63.70;;;;;;5094914;28;19957;-67
2022/08/10 12:21:58;;;;;;;;;;;26.80;62.50;;;;;;5094921;28;20404;-69
2022/08/10 12:24:38;;;;;;;;;;;26.80;63.40;;;;;;5076770;28;19903;-69
2022/08/10 12:27:09;;;;;;;;;;;26.90;61.90;;;;;;5094693;28;19911;-68
2022/08/10 12:29:35;;;;;;;;;;;27.00;64.50;;;;;;5076610;28;19910;-70
2022/08/10 12:32:19;;;;;;;;;;;27.30;61.30;;;;;;5094804;28;19908;-70
2022/08/10 12:35:05;;;;;;;;;;;27.30;62.90;;;;;;5076505;28;19987;-70
2022/08/10 12:37:37;;;;;;;;;;;27.40;60.60;;;;;;5076036;28;19904;-69
2022/08/10 12:40:23;;;;;;;;;;;27.40;62.10;;;;;;5094329;28;19908;-69
2022/08/10 12:42:55;;;;;;;;;;;27.30;62.80;;;;;;5076293;28;19905;-69
2022/08/10 12:45:36;;;;;;;;;;;27.20;58.70;;;;;;5094335;28;19904;-70
2022/08/10 12:48:11;;;;;;;;;;;27.00;60.80;;;;;;5094543;28;19948;-68
2022/08/10 12:50:48;;;;;;;;;;;27.00;59.80;;;;;;5094719;28;20455;-71
2022/08/10 12:53:41;;;;;;;;;;;27.00;59.80;;;;;;5076241;28;20344;-70
2022/08/10 12:56:06;;;;;;;;;;;27.10;60.60;;;;;;5091213;28;19911;-69
2022/08/10 12:58:33;;;;;;;;;;;27.20;60.00;;;;;;5076007;28;19904;-70
2022/08/10 13:01:00;;;;;;;;;;;27.30;59.40;;;;;;5094303;28;20379;-69
2022/08/10 13:03:27;;;;;;;;;;;27.50;59.60;;;;;;5094260;28;19910;-70
2022/08/10 13:05:53;;;;;;;;;;;27.60;59.90;;;;;;5094078;28;19912;-71
2022/08/10 13:11:06;;;;;;;;;;;27.70;58.90;;;;;;5094569;28;20378;-70
2022/08/10 13:13:36;;;;;;;;;;;27.70;57.60;;;;;;5094048;28;19908;-69
2022/08/10 13:16:03;;;;;;;;;;;27.70;57.70;;;;;;5076174;28;20348;-69
2022/08/10 13:18:33;;;;;;;;;;;27.80;59.20;;;;;;5094058;28;19911;-71
2022/08/10 13:21:03;;;;;;;;;;;27.80;59.40;;;;;;5094566;28;19983;-69
2022/08/10 13:23:30;;;;;;;;;;;27.90;58.10;;;;;;5094009;28;19999;-68
2022/08/10 13:25:56;;;;;;;;;;;27.90;57.70;;;;;;5093794;28;19994;-69
2022/08/10 13:28:46;;;;;;;;;;;27.90;57.30;;;;;;5075957;28;20371;-69
2022/08/10 13:31:25;;;;;;;;;;;27.80;57.80;;;;;;5061539;28;19904;-70
2022/08/10 13:33:52;;;;;;;;;;;27.60;58.00;;;;;;5074716;28;20010;-68
2022/08/10 13:36:22;;;;;;;;;;;27.60;58.20;;;;;;5091828;28;19940;-70
2022/08/10 13:38:49;;;;;;;;;;;27.60;59.30;;;;;;5092060;28;19915;-69
2022/08/10 13:41:16;;;;;;;;;;;27.30;59.70;;;;;;5075038;28;19994;-68
2022/08/10 13:43:51;;;;;;;;;;;27.00;58.10;;;;;;5093691;28;19904;-68